sensor_id;sensor_type;location;lat;lon;timestamp;P1;durP1;ratioP1;P2;durP2;ratioP2
43694;SDS011;29300;43.560;1.294;2022-12-24T00:01:06;16.48;;;11.70;;
43694;SDS011;29300;43.560;1.294;2022-12-24T00:03:33;16.42;;;11.00;;
43694;SDS011;29300;43.560;1.294;2022-12-24T00:06:06;17.50;;;11.90;;
43694;SDS011;29300;43.560;1.294;2022-12-24T00:08:41;17.20;;;10.82;;
43694;SDS011;29300;43.560;1.294;2022-12-24T00:11:07;14.55;;;10.52;;
43694;SDS011;29300;43.560;1.294;2022-12-24T00:13:32;13.63;;;9.75;;
43694;SDS011;29300;43.560;1.294;2022-12-24T00:15:59;15.05;;;10.38;;
43694;SDS011;29300;43.560;1.294;2022-12-24T00:18:25;15.32;;;9.88;;
43694;SDS011;29300;43.560;1.294;2022-12-24T00:20:51;16.08;;;10.27;;
43694;SDS011;29300;43.560;1.294;2022-12-24T00:23:16;13.32;;;9.95;;
43694;SDS011;29300;43.560;1.294;2022-12-24T00:25:43;12.77;;;8.88;;
43694;SDS011;29300;43.560;1.294;2022-12-24T00:28:09;13.80;;;9.35;;
43694;SDS011;29300;43.560;1.294;2022-12-24T00:30:36;12.27;;;8.73;;
43694;SDS011;29300;43.560;1.294;2022-12-24T00:33:03;12.18;;;8.77;;
43694;SDS011;29300;43.560;1.294;2022-12-24T00:35:29;12.65;;;7.90;;
43694;SDS011;29300;43.560;1.294;2022-12-24T00:37:57;13.68;;;8.40;;
43694;SDS011;29300;43.560;1.294;2022-12-24T00:40:23;10.60;;;7.82;;
43694;SDS011;29300;43.560;1.294;2022-12-24T00:42:48;14.00;;;8.43;;
43694;SDS011;29300;43.560;1.294;2022-12-24T00:45:14;9.75;;;7.10;;
43694;SDS011;29300;43.560;1.294;2022-12-24T00:47:40;9.98;;;7.72;;
43694;SDS011;29300;43.560;1.294;2022-12-24T00:50:06;11.80;;;8.13;;
43694;SDS011;29300;43.560;1.294;2022-12-24T00:52:32;9.52;;;7.32;;
43694;SDS011;29300;43.560;1.294;2022-12-24T00:54:57;9.80;;;7.20;;
43694;SDS011;29300;43.560;1.294;2022-12-24T00:57:23;10.50;;;7.22;;
43694;SDS011;29300;43.560;1.294;2022-12-24T00:59:49;10.82;;;7.85;;
43694;SDS011;29300;43.560;1.294;2022-12-24T01:02:14;11.52;;;7.85;;
43694;SDS011;29300;43.560;1.294;2022-12-24T01:04:40;10.20;;;7.45;;
43694;SDS011;29300;43.560;1.294;2022-12-24T01:07:24;11.15;;;7.55;;
43694;SDS011;29300;43.560;1.294;2022-12-24T01:09:50;9.45;;;7.10;;
43694;SDS011;29300;43.560;1.294;2022-12-24T01:12:15;10.75;;;7.05;;
43694;SDS011;29300;43.560;1.294;2022-12-24T01:14:41;9.85;;;7.32;;
43694;SDS011;29300;43.560;1.294;2022-12-24T01:17:07;10.80;;;7.85;;
43694;SDS011;29300;43.560;1.294;2022-12-24T01:19:33;10.05;;;7.40;;
43694;SDS011;29300;43.560;1.294;2022-12-24T01:21:58;11.93;;;7.70;;
43694;SDS011;29300;43.560;1.294;2022-12-24T01:24:24;8.63;;;6.97;;
43694;SDS011;29300;43.560;1.294;2022-12-24T01:26:50;11.02;;;7.28;;
43694;SDS011;29300;43.560;1.294;2022-12-24T01:29:16;10.50;;;7.25;;
43694;SDS011;29300;43.560;1.294;2022-12-24T01:31:42;9.88;;;6.82;;
43694;SDS011;29300;43.560;1.294;2022-12-24T01:34:08;10.88;;;7.03;;
43694;SDS011;29300;43.560;1.294;2022-12-24T01:36:34;9.70;;;7.20;;
43694;SDS011;29300;43.560;1.294;2022-12-24T01:39:00;7.05;;;5.80;;
43694;SDS011;29300;43.560;1.294;2022-12-24T01:41:26;8.20;;;6.03;;
43694;SDS011;29300;43.560;1.294;2022-12-24T01:46:52;8.07;;;6.68;;
43694;SDS011;29300;43.560;1.294;2022-12-24T01:49:30;10.27;;;6.60;;
43694;SDS011;29300;43.560;1.294;2022-12-24T01:51:59;8.80;;;6.25;;
43694;SDS011;29300;43.560;1.294;2022-12-24T01:54:29;8.68;;;5.80;;
43694;SDS011;29300;43.560;1.294;2022-12-24T01:57:07;9.15;;;5.82;;
43694;SDS011;29300;43.560;1.294;2022-12-24T01:59:54;8.27;;;5.07;;
43694;SDS011;29300;43.560;1.294;2022-12-24T02:02:24;9.93;;;6.47;;
43694;SDS011;29300;43.560;1.294;2022-12-24T02:05:11;8.63;;;6.25;;
43694;SDS011;29300;43.560;1.294;2022-12-24T02:07:42;8.20;;;5.85;;
43694;SDS011;29300;43.560;1.294;2022-12-24T02:10:10;10.23;;;6.22;;
43694;SDS011;29300;43.560;1.294;2022-12-24T02:12:38;6.45;;;5.00;;
43694;SDS011;29300;43.560;1.294;2022-12-24T02:15:06;6.32;;;5.07;;
43694;SDS011;29300;43.560;1.294;2022-12-24T02:31:32;6.03;;;4.85;;
43694;SDS011;29300;43.560;1.294;2022-12-24T02:34:05;7.15;;;5.47;;
43694;SDS011;29300;43.560;1.294;2022-12-24T02:36:45;6.57;;;5.10;;
43694;SDS011;29300;43.560;1.294;2022-12-24T02:39:19;6.78;;;5.25;;
43694;SDS011;29300;43.560;1.294;2022-12-24T02:41:52;7.07;;;5.10;;
43694;SDS011;29300;43.560;1.294;2022-12-24T02:44:36;6.97;;;5.05;;
43694;SDS011;29300;43.560;1.294;2022-12-24T02:47:06;7.50;;;5.00;;
43694;SDS011;29300;43.560;1.294;2022-12-24T02:49:34;7.65;;;5.30;;
43694;SDS011;29300;43.560;1.294;2022-12-24T02:52:01;5.75;;;4.80;;
43694;SDS011;29300;43.560;1.294;2022-12-24T02:54:26;6.47;;;5.05;;
43694;SDS011;29300;43.560;1.294;2022-12-24T02:56:57;7.10;;;5.10;;
43694;SDS011;29300;43.560;1.294;2022-12-24T03:02:34;7.13;;;5.07;;
43694;SDS011;29300;43.560;1.294;2022-12-24T03:10:48;5.65;;;4.68;;
43694;SDS011;29300;43.560;1.294;2022-12-24T03:13:22;5.90;;;4.75;;
43694;SDS011;29300;43.560;1.294;2022-12-24T03:15:49;6.25;;;4.40;;
43694;SDS011;29300;43.560;1.294;2022-12-24T03:18:17;6.55;;;4.85;;
43694;SDS011;29300;43.560;1.294;2022-12-24T03:20:48;5.82;;;4.13;;
43694;SDS011;29300;43.560;1.294;2022-12-24T03:23:21;5.95;;;4.50;;
43694;SDS011;29300;43.560;1.294;2022-12-24T03:25:47;7.18;;;4.65;;
43694;SDS011;29300;43.560;1.294;2022-12-24T03:28:14;6.28;;;4.60;;
43694;SDS011;29300;43.560;1.294;2022-12-24T03:30:43;6.68;;;4.72;;
43694;SDS011;29300;43.560;1.294;2022-12-24T03:33:11;6.68;;;4.22;;
43694;SDS011;29300;43.560;1.294;2022-12-24T03:35:37;4.40;;;3.92;;
43694;SDS011;29300;43.560;1.294;2022-12-24T03:38:03;4.72;;;3.83;;
43694;SDS011;29300;43.560;1.294;2022-12-24T03:40:29;5.72;;;4.68;;
43694;SDS011;29300;43.560;1.294;2022-12-24T03:42:55;5.03;;;3.47;;
43694;SDS011;29300;43.560;1.294;2022-12-24T03:45:21;5.82;;;4.15;;
43694;SDS011;29300;43.560;1.294;2022-12-24T03:47:47;5.85;;;4.28;;
43694;SDS011;29300;43.560;1.294;2022-12-24T03:50:13;4.90;;;4.05;;
43694;SDS011;29300;43.560;1.294;2022-12-24T03:52:39;4.90;;;3.67;;
43694;SDS011;29300;43.560;1.294;2022-12-24T03:55:05;5.95;;;4.13;;
43694;SDS011;29300;43.560;1.294;2022-12-24T03:57:30;5.03;;;3.70;;
43694;SDS011;29300;43.560;1.294;2022-12-24T03:59:56;6.78;;;4.07;;
43694;SDS011;29300;43.560;1.294;2022-12-24T04:02:22;6.60;;;4.18;;
43694;SDS011;29300;43.560;1.294;2022-12-24T04:04:48;5.85;;;3.85;;
43694;SDS011;29300;43.560;1.294;2022-12-24T04:07:13;4.30;;;3.90;;
43694;SDS011;29300;43.560;1.294;2022-12-24T04:09:39;5.85;;;4.25;;
43694;SDS011;29300;43.560;1.294;2022-12-24T04:12:05;5.38;;;4.22;;
43694;SDS011;29300;43.560;1.294;2022-12-24T04:14:31;5.28;;;4.20;;
43694;SDS011;29300;43.560;1.294;2022-12-24T04:16:57;5.78;;;4.10;;
43694;SDS011;29300;43.560;1.294;2022-12-24T04:19:23;6.00;;;3.88;;
43694;SDS011;29300;43.560;1.294;2022-12-24T04:21:48;6.25;;;3.97;;
43694;SDS011;29300;43.560;1.294;2022-12-24T04:24:14;4.72;;;3.90;;
43694;SDS011;29300;43.560;1.294;2022-12-24T04:26:40;7.40;;;4.22;;
43694;SDS011;29300;43.560;1.294;2022-12-24T04:29:06;5.50;;;3.80;;
43694;SDS011;29300;43.560;1.294;2022-12-24T04:31:31;5.03;;;3.78;;
43694;SDS011;29300;43.560;1.294;2022-12-24T04:33:57;4.03;;;3.30;;
43694;SDS011;29300;43.560;1.294;2022-12-24T04:36:23;6.15;;;3.65;;
43694;SDS011;29300;43.560;1.294;2022-12-24T04:38:49;4.40;;;4.00;;
43694;SDS011;29300;43.560;1.294;2022-12-24T04:43:42;3.78;;;3.38;;
43694;SDS011;29300;43.560;1.294;2022-12-24T04:46:12;4.93;;;3.58;;
43694;SDS011;29300;43.560;1.294;2022-12-24T04:48:43;4.45;;;3.33;;
43694;SDS011;29300;43.560;1.294;2022-12-24T04:51:10;4.18;;;3.45;;
43694;SDS011;29300;43.560;1.294;2022-12-24T04:53:36;5.10;;;3.88;;
43694;SDS011;29300;43.560;1.294;2022-12-24T04:56:06;6.45;;;4.10;;
43694;SDS011;29300;43.560;1.294;2022-12-24T04:58:35;5.35;;;4.05;;
43694;SDS011;29300;43.560;1.294;2022-12-24T05:01:05;4.82;;;3.97;;
43694;SDS011;29300;43.560;1.294;2022-12-24T05:03:37;5.70;;;4.20;;
43694;SDS011;29300;43.560;1.294;2022-12-24T05:06:03;5.03;;;3.35;;
43694;SDS011;29300;43.560;1.294;2022-12-24T05:08:30;4.30;;;3.60;;
43694;SDS011;29300;43.560;1.294;2022-12-24T05:10:56;6.10;;;3.70;;
43694;SDS011;29300;43.560;1.294;2022-12-24T05:13:23;4.43;;;3.38;;
43694;SDS011;29300;43.560;1.294;2022-12-24T05:15:49;4.53;;;3.50;;
43694;SDS011;29300;43.560;1.294;2022-12-24T05:18:15;4.78;;;3.35;;
43694;SDS011;29300;43.560;1.294;2022-12-24T05:20:41;4.43;;;3.40;;
43694;SDS011;29300;43.560;1.294;2022-12-24T05:23:08;3.85;;;3.35;;
43694;SDS011;29300;43.560;1.294;2022-12-24T05:25:57;6.78;;;4.03;;
43694;SDS011;29300;43.560;1.294;2022-12-24T05:28:41;4.82;;;3.53;;
43694;SDS011;29300;43.560;1.294;2022-12-24T05:31:07;4.05;;;3.47;;
43694;SDS011;29300;43.560;1.294;2022-12-24T05:33:33;4.47;;;3.90;;
43694;SDS011;29300;43.560;1.294;2022-12-24T05:35:58;4.40;;;3.50;;
43694;SDS011;29300;43.560;1.294;2022-12-24T05:38:24;4.53;;;3.58;;
43694;SDS011;29300;43.560;1.294;2022-12-24T05:40:50;4.20;;;3.40;;
43694;SDS011;29300;43.560;1.294;2022-12-24T05:43:15;4.53;;;3.53;;
43694;SDS011;29300;43.560;1.294;2022-12-24T05:45:41;5.25;;;3.58;;
43694;SDS011;29300;43.560;1.294;2022-12-24T05:48:07;4.60;;;3.30;;
43694;SDS011;29300;43.560;1.294;2022-12-24T05:50:34;4.90;;;3.70;;
43694;SDS011;29300;43.560;1.294;2022-12-24T05:53:00;5.50;;;3.65;;
43694;SDS011;29300;43.560;1.294;2022-12-24T05:55:26;5.22;;;3.85;;
43694;SDS011;29300;43.560;1.294;2022-12-24T05:57:51;4.15;;;3.28;;
43694;SDS011;29300;43.560;1.294;2022-12-24T06:00:17;5.07;;;3.53;;
43694;SDS011;29300;43.560;1.294;2022-12-24T06:02:43;4.70;;;3.53;;
43694;SDS011;29300;43.560;1.294;2022-12-24T06:05:09;4.07;;;3.60;;
43694;SDS011;29300;43.560;1.294;2022-12-24T06:07:35;3.92;;;3.45;;
43694;SDS011;29300;43.560;1.294;2022-12-24T06:10:00;5.80;;;3.40;;
43694;SDS011;29300;43.560;1.294;2022-12-24T06:12:26;5.57;;;3.60;;
43694;SDS011;29300;43.560;1.294;2022-12-24T06:14:52;4.45;;;3.30;;
43694;SDS011;29300;43.560;1.294;2022-12-24T06:17:17;5.13;;;3.70;;
43694;SDS011;29300;43.560;1.294;2022-12-24T06:19:43;4.50;;;3.40;;
43694;SDS011;29300;43.560;1.294;2022-12-24T06:22:09;5.22;;;3.40;;
43694;SDS011;29300;43.560;1.294;2022-12-24T06:24:34;4.30;;;3.88;;
43694;SDS011;29300;43.560;1.294;2022-12-24T06:27:00;4.25;;;3.40;;
43694;SDS011;29300;43.560;1.294;2022-12-24T06:29:26;4.07;;;3.22;;
43694;SDS011;29300;43.560;1.294;2022-12-24T06:31:51;4.45;;;3.38;;
43694;SDS011;29300;43.560;1.294;2022-12-24T06:34:17;3.67;;;3.13;;
43694;SDS011;29300;43.560;1.294;2022-12-24T06:36:43;3.33;;;3.03;;
43694;SDS011;29300;43.560;1.294;2022-12-24T06:39:08;4.35;;;3.60;;
43694;SDS011;29300;43.560;1.294;2022-12-24T06:41:34;5.03;;;3.67;;
43694;SDS011;29300;43.560;1.294;2022-12-24T06:44:00;4.50;;;3.55;;
43694;SDS011;29300;43.560;1.294;2022-12-24T06:46:25;4.43;;;3.20;;
43694;SDS011;29300;43.560;1.294;2022-12-24T06:48:51;4.65;;;3.88;;
43694;SDS011;29300;43.560;1.294;2022-12-24T06:51:19;4.97;;;4.07;;
43694;SDS011;29300;43.560;1.294;2022-12-24T06:53:46;4.43;;;3.22;;
43694;SDS011;29300;43.560;1.294;2022-12-24T06:56:14;4.53;;;3.58;;
43694;SDS011;29300;43.560;1.294;2022-12-24T06:58:40;3.75;;;3.13;;
43694;SDS011;29300;43.560;1.294;2022-12-24T07:01:06;5.38;;;3.42;;
43694;SDS011;29300;43.560;1.294;2022-12-24T07:03:34;5.22;;;3.47;;
43694;SDS011;29300;43.560;1.294;2022-12-24T07:05:59;5.35;;;3.72;;
43694;SDS011;29300;43.560;1.294;2022-12-24T07:08:26;4.95;;;3.85;;
43694;SDS011;29300;43.560;1.294;2022-12-24T07:10:52;4.55;;;3.83;;
43694;SDS011;29300;43.560;1.294;2022-12-24T07:13:18;5.18;;;3.72;;
43694;SDS011;29300;43.560;1.294;2022-12-24T07:15:44;5.10;;;4.07;;
43694;SDS011;29300;43.560;1.294;2022-12-24T07:18:10;5.43;;;4.15;;
43694;SDS011;29300;43.560;1.294;2022-12-24T07:20:36;8.00;;;4.30;;
43694;SDS011;29300;43.560;1.294;2022-12-24T07:23:03;3.80;;;3.47;;
43694;SDS011;29300;43.560;1.294;2022-12-24T07:25:28;4.55;;;3.85;;
43694;SDS011;29300;43.560;1.294;2022-12-24T07:27:55;5.30;;;3.53;;
43694;SDS011;29300;43.560;1.294;2022-12-24T07:30:20;4.43;;;3.70;;
43694;SDS011;29300;43.560;1.294;2022-12-24T07:32:46;5.03;;;4.00;;
43694;SDS011;29300;43.560;1.294;2022-12-24T07:35:12;5.13;;;3.67;;
43694;SDS011;29300;43.560;1.294;2022-12-24T07:37:37;4.82;;;3.22;;
43694;SDS011;29300;43.560;1.294;2022-12-24T07:40:03;4.18;;;3.55;;
43694;SDS011;29300;43.560;1.294;2022-12-24T07:42:32;5.28;;;3.83;;
43694;SDS011;29300;43.560;1.294;2022-12-24T07:44:57;5.22;;;3.70;;
43694;SDS011;29300;43.560;1.294;2022-12-24T07:47:23;5.43;;;3.50;;
43694;SDS011;29300;43.560;1.294;2022-12-24T07:49:49;4.80;;;3.70;;
43694;SDS011;29300;43.560;1.294;2022-12-24T07:52:15;4.10;;;3.03;;
43694;SDS011;29300;43.560;1.294;2022-12-24T07:54:40;4.20;;;3.58;;
43694;SDS011;29300;43.560;1.294;2022-12-24T07:57:06;4.80;;;4.00;;
43694;SDS011;29300;43.560;1.294;2022-12-24T07:59:32;4.63;;;3.85;;
43694;SDS011;29300;43.560;1.294;2022-12-24T08:01:57;3.83;;;3.38;;
43694;SDS011;29300;43.560;1.294;2022-12-24T08:04:23;5.30;;;3.97;;
43694;SDS011;29300;43.560;1.294;2022-12-24T08:06:49;4.32;;;3.47;;
43694;SDS011;29300;43.560;1.294;2022-12-24T08:09:15;4.78;;;3.60;;
43694;SDS011;29300;43.560;1.294;2022-12-24T08:11:40;5.78;;;4.00;;
43694;SDS011;29300;43.560;1.294;2022-12-24T08:14:07;4.68;;;3.45;;
43694;SDS011;29300;43.560;1.294;2022-12-24T08:16:32;4.63;;;3.50;;
43694;SDS011;29300;43.560;1.294;2022-12-24T08:18:58;3.97;;;3.28;;
43694;SDS011;29300;43.560;1.294;2022-12-24T08:21:24;4.53;;;3.75;;
43694;SDS011;29300;43.560;1.294;2022-12-24T08:23:49;4.60;;;3.60;;
43694;SDS011;29300;43.560;1.294;2022-12-24T08:26:16;6.18;;;3.95;;
43694;SDS011;29300;43.560;1.294;2022-12-24T08:28:41;4.72;;;3.90;;
43694;SDS011;29300;43.560;1.294;2022-12-24T08:31:08;5.32;;;4.15;;
43694;SDS011;29300;43.560;1.294;2022-12-24T08:33:33;5.85;;;4.32;;
43694;SDS011;29300;43.560;1.294;2022-12-24T08:35:59;6.00;;;4.15;;
43694;SDS011;29300;43.560;1.294;2022-12-24T08:38:26;5.80;;;4.30;;
43694;SDS011;29300;43.560;1.294;2022-12-24T08:40:52;6.63;;;4.80;;
43694;SDS011;29300;43.560;1.294;2022-12-24T08:43:19;6.55;;;4.80;;
43694;SDS011;29300;43.560;1.294;2022-12-24T08:45:45;5.60;;;4.68;;
43694;SDS011;29300;43.560;1.294;2022-12-24T08:48:13;5.43;;;4.65;;
43694;SDS011;29300;43.560;1.294;2022-12-24T08:50:39;6.57;;;4.47;;
43694;SDS011;29300;43.560;1.294;2022-12-24T08:53:05;6.80;;;5.05;;
43694;SDS011;29300;43.560;1.294;2022-12-24T08:55:32;6.78;;;4.40;;
43694;SDS011;29300;43.560;1.294;2022-12-24T08:57:58;5.57;;;4.63;;
43694;SDS011;29300;43.560;1.294;2022-12-24T09:00:24;8.23;;;5.28;;
43694;SDS011;29300;43.560;1.294;2022-12-24T09:02:50;6.75;;;5.30;;
43694;SDS011;29300;43.560;1.294;2022-12-24T09:05:16;7.45;;;5.20;;
43694;SDS011;29300;43.560;1.294;2022-12-24T09:07:42;6.18;;;4.55;;
43694;SDS011;29300;43.560;1.294;2022-12-24T09:10:08;8.15;;;4.82;;
43694;SDS011;29300;43.560;1.294;2022-12-24T09:12:35;7.50;;;5.22;;
43694;SDS011;29300;43.560;1.294;2022-12-24T09:15:01;8.05;;;5.85;;
43694;SDS011;29300;43.560;1.294;2022-12-24T09:17:27;5.85;;;4.90;;
43694;SDS011;29300;43.560;1.294;2022-12-24T09:19:53;6.63;;;5.03;;
43694;SDS011;29300;43.560;1.294;2022-12-24T09:22:18;6.00;;;4.88;;
43694;SDS011;29300;43.560;1.294;2022-12-24T09:24:44;6.40;;;4.90;;
43694;SDS011;29300;43.560;1.294;2022-12-24T09:27:10;6.25;;;4.57;;
43694;SDS011;29300;43.560;1.294;2022-12-24T09:29:36;5.82;;;4.55;;
43694;SDS011;29300;43.560;1.294;2022-12-24T09:32:04;6.65;;;5.13;;
43694;SDS011;29300;43.560;1.294;2022-12-24T09:34:30;7.38;;;5.43;;
43694;SDS011;29300;43.560;1.294;2022-12-24T09:36:56;7.53;;;4.72;;
43694;SDS011;29300;43.560;1.294;2022-12-24T09:39:24;5.15;;;4.00;;
43694;SDS011;29300;43.560;1.294;2022-12-24T09:44:29;6.63;;;4.75;;
43694;SDS011;29300;43.560;1.294;2022-12-24T09:47:03;6.40;;;4.75;;
43694;SDS011;29300;43.560;1.294;2022-12-24T09:49:39;6.75;;;4.70;;
43694;SDS011;29300;43.560;1.294;2022-12-24T09:52:09;6.43;;;4.57;;
43694;SDS011;29300;43.560;1.294;2022-12-24T09:54:42;5.32;;;4.57;;
43694;SDS011;29300;43.560;1.294;2022-12-24T09:57:15;5.57;;;4.38;;
43694;SDS011;29300;43.560;1.294;2022-12-24T09:59:52;5.40;;;4.22;;
43694;SDS011;29300;43.560;1.294;2022-12-24T10:02:19;7.70;;;4.90;;
43694;SDS011;29300;43.560;1.294;2022-12-24T10:04:45;6.30;;;4.50;;
43694;SDS011;29300;43.560;1.294;2022-12-24T10:21:52;5.03;;;4.13;;
43694;SDS011;29300;43.560;1.294;2022-12-24T10:24:28;6.25;;;4.60;;
43694;SDS011;29300;43.560;1.294;2022-12-24T10:27:09;5.35;;;4.60;;
43694;SDS011;29300;43.560;1.294;2022-12-24T10:29:39;5.03;;;4.05;;
43694;SDS011;29300;43.560;1.294;2022-12-24T10:34:35;5.25;;;3.72;;
43694;SDS011;29300;43.560;1.294;2022-12-24T10:39:33;4.63;;;4.10;;
43694;SDS011;29300;43.560;1.294;2022-12-24T10:41:58;5.22;;;3.70;;
43694;SDS011;29300;43.560;1.294;2022-12-24T10:44:26;4.30;;;3.80;;
43694;SDS011;29300;43.560;1.294;2022-12-24T10:46:54;5.18;;;3.67;;
43694;SDS011;29300;43.560;1.294;2022-12-24T10:52:13;4.43;;;3.60;;
43694;SDS011;29300;43.560;1.294;2022-12-24T10:55:26;5.22;;;3.67;;
43694;SDS011;29300;43.560;1.294;2022-12-24T10:57:30;4.20;;;3.13;;
43694;SDS011;29300;43.560;1.294;2022-12-24T10:59:57;4.63;;;3.75;;
43694;SDS011;29300;43.560;1.294;2022-12-24T11:02:33;5.35;;;3.70;;
43694;SDS011;29300;43.560;1.294;2022-12-24T11:05:01;4.65;;;3.42;;
43694;SDS011;29300;43.560;1.294;2022-12-24T11:07:29;4.85;;;3.45;;
43694;SDS011;29300;43.560;1.294;2022-12-24T11:09:57;4.40;;;3.50;;
43694;SDS011;29300;43.560;1.294;2022-12-24T11:12:46;5.43;;;3.35;;
43694;SDS011;29300;43.560;1.294;2022-12-24T11:15:25;5.03;;;3.60;;
43694;SDS011;29300;43.560;1.294;2022-12-24T11:17:56;5.63;;;3.47;;
43694;SDS011;29300;43.560;1.294;2022-12-24T11:20:36;3.40;;;3.10;;
43694;SDS011;29300;43.560;1.294;2022-12-24T11:23:02;4.25;;;3.50;;
43694;SDS011;29300;43.560;1.294;2022-12-24T11:25:31;5.75;;;4.38;;
43694;SDS011;29300;43.560;1.294;2022-12-24T11:28:18;4.40;;;3.75;;
43694;SDS011;29300;43.560;1.294;2022-12-24T11:33:51;6.35;;;4.43;;
43694;SDS011;29300;43.560;1.294;2022-12-24T11:36:19;5.03;;;4.40;;
43694;SDS011;29300;43.560;1.294;2022-12-24T11:38:53;4.63;;;4.18;;
43694;SDS011;29300;43.560;1.294;2022-12-24T11:41:21;5.10;;;3.95;;
43694;SDS011;29300;43.560;1.294;2022-12-24T11:43:47;5.78;;;4.32;;
43694;SDS011;29300;43.560;1.294;2022-12-24T11:46:34;5.22;;;4.28;;
43694;SDS011;29300;43.560;1.294;2022-12-24T11:49:04;5.03;;;4.07;;
43694;SDS011;29300;43.560;1.294;2022-12-24T11:51:38;5.30;;;3.80;;
43694;SDS011;29300;43.560;1.294;2022-12-24T11:54:15;4.88;;;4.05;;
43694;SDS011;29300;43.560;1.294;2022-12-24T11:56:52;6.55;;;4.43;;
43694;SDS011;29300;43.560;1.294;2022-12-24T11:59:32;8.10;;;4.13;;
43694;SDS011;29300;43.560;1.294;2022-12-24T12:02:16;6.38;;;4.45;;
43694;SDS011;29300;43.560;1.294;2022-12-24T12:04:49;6.45;;;4.28;;
43694;SDS011;29300;43.560;1.294;2022-12-24T12:07:24;4.70;;;4.10;;
43694;SDS011;29300;43.560;1.294;2022-12-24T12:13:37;5.05;;;3.78;;
43694;SDS011;29300;43.560;1.294;2022-12-24T12:18:53;6.90;;;3.80;;
43694;SDS011;29300;43.560;1.294;2022-12-24T12:21:35;4.45;;;3.60;;
43694;SDS011;29300;43.560;1.294;2022-12-24T12:24:09;5.82;;;3.97;;
43694;SDS011;29300;43.560;1.294;2022-12-24T12:26:38;4.63;;;3.40;;
43694;SDS011;29300;43.560;1.294;2022-12-24T12:32:03;4.82;;;2.92;;
43694;SDS011;29300;43.560;1.294;2022-12-24T12:34:39;5.50;;;3.45;;
43694;SDS011;29300;43.560;1.294;2022-12-24T12:40:15;4.13;;;2.90;;
43694;SDS011;29300;43.560;1.294;2022-12-24T12:43:06;3.65;;;2.90;;
43694;SDS011;29300;43.560;1.294;2022-12-24T12:52:13;3.40;;;2.53;;
43694;SDS011;29300;43.560;1.294;2022-12-24T12:54:46;3.58;;;2.40;;
43694;SDS011;29300;43.560;1.294;2022-12-24T12:57:14;3.95;;;2.38;;
43694;SDS011;29300;43.560;1.294;2022-12-24T12:59:48;2.53;;;2.33;;
43694;SDS011;29300;43.560;1.294;2022-12-24T13:11:31;3.00;;;2.28;;
43694;SDS011;29300;43.560;1.294;2022-12-24T13:21:57;2.22;;;1.85;;
43694;SDS011;29300;43.560;1.294;2022-12-24T13:24:23;2.55;;;2.10;;
43694;SDS011;29300;43.560;1.294;2022-12-24T13:27:02;1.95;;;1.80;;
43694;SDS011;29300;43.560;1.294;2022-12-24T13:30:30;2.22;;;2.03;;
43694;SDS011;29300;43.560;1.294;2022-12-24T13:34:55;2.95;;;2.05;;
43694;SDS011;29300;43.560;1.294;2022-12-24T13:42:45;3.17;;;2.00;;
43694;SDS011;29300;43.560;1.294;2022-12-24T13:50:36;1.73;;;1.60;;
43694;SDS011;29300;43.560;1.294;2022-12-24T13:55:53;2.20;;;2.00;;
43694;SDS011;29300;43.560;1.294;2022-12-24T13:58:19;5.72;;;2.28;;
43694;SDS011;29300;43.560;1.294;2022-12-24T14:00:52;3.08;;;2.30;;
43694;SDS011;29300;43.560;1.294;2022-12-24T14:03:25;2.30;;;2.10;;
43694;SDS011;29300;43.560;1.294;2022-12-24T14:05:59;4.57;;;2.10;;
43694;SDS011;29300;43.560;1.294;2022-12-24T14:08:31;2.60;;;1.90;;
43694;SDS011;29300;43.560;1.294;2022-12-24T14:11:13;2.55;;;1.85;;
43694;SDS011;29300;43.560;1.294;2022-12-24T14:16:09;1.67;;;1.58;;
43694;SDS011;29300;43.560;1.294;2022-12-24T14:18:39;2.22;;;1.75;;
43694;SDS011;29300;43.560;1.294;2022-12-24T14:21:13;2.03;;;1.70;;
43694;SDS011;29300;43.560;1.294;2022-12-24T14:23:50;2.03;;;1.70;;
43694;SDS011;29300;43.560;1.294;2022-12-24T14:26:27;2.25;;;1.92;;
43694;SDS011;29300;43.560;1.294;2022-12-24T14:29:01;2.15;;;1.65;;
43694;SDS011;29300;43.560;1.294;2022-12-24T14:31:30;1.77;;;1.67;;
43694;SDS011;29300;43.560;1.294;2022-12-24T14:34:11;1.80;;;1.45;;
43694;SDS011;29300;43.560;1.294;2022-12-24T14:36:37;2.83;;;1.40;;
43694;SDS011;29300;43.560;1.294;2022-12-24T14:39:07;1.95;;;1.73;;
43694;SDS011;29300;43.560;1.294;2022-12-24T14:41:45;1.58;;;1.48;;
43694;SDS011;29300;43.560;1.294;2022-12-24T14:44:27;1.73;;;1.60;;
43694;SDS011;29300;43.560;1.294;2022-12-24T14:47:14;1.73;;;1.63;;
43694;SDS011;29300;43.560;1.294;2022-12-24T14:50:29;1.50;;;1.30;;
43694;SDS011;29300;43.560;1.294;2022-12-24T14:55:42;1.50;;;1.40;;
43694;SDS011;29300;43.560;1.294;2022-12-24T15:00:58;2.25;;;1.45;;
43694;SDS011;29300;43.560;1.294;2022-12-24T15:03:27;2.30;;;1.30;;
43694;SDS011;29300;43.560;1.294;2022-12-24T15:05:58;1.95;;;1.75;;
43694;SDS011;29300;43.560;1.294;2022-12-24T15:08:31;1.40;;;1.30;;
43694;SDS011;29300;43.560;1.294;2022-12-24T15:11:15;1.60;;;1.50;;
43694;SDS011;29300;43.560;1.294;2022-12-24T15:13:50;1.63;;;1.45;;
43694;SDS011;29300;43.560;1.294;2022-12-24T15:16:21;1.17;;;1.08;;
43694;SDS011;29300;43.560;1.294;2022-12-24T15:18:49;1.77;;;1.38;;
43694;SDS011;29300;43.560;1.294;2022-12-24T15:21:33;1.85;;;1.70;;
43694;SDS011;29300;43.560;1.294;2022-12-24T15:24:17;1.85;;;1.50;;
43694;SDS011;29300;43.560;1.294;2022-12-24T15:26:52;1.90;;;1.42;;
43694;SDS011;29300;43.560;1.294;2022-12-24T15:29:25;2.72;;;1.70;;
43694;SDS011;29300;43.560;1.294;2022-12-24T15:31:57;1.77;;;1.40;;
43694;SDS011;29300;43.560;1.294;2022-12-24T15:34:25;2.25;;;1.50;;
43694;SDS011;29300;43.560;1.294;2022-12-24T15:39:34;1.35;;;1.25;;
43694;SDS011;29300;43.560;1.294;2022-12-24T15:42:01;1.52;;;1.42;;
43694;SDS011;29300;43.560;1.294;2022-12-24T15:44:44;2.20;;;1.58;;
43694;SDS011;29300;43.560;1.294;2022-12-24T15:47:18;1.70;;;1.60;;
43694;SDS011;29300;43.560;1.294;2022-12-24T15:49:49;2.72;;;1.30;;
43694;SDS011;29300;43.560;1.294;2022-12-24T15:52:16;1.40;;;1.30;;
43694;SDS011;29300;43.560;1.294;2022-12-24T15:54:48;1.95;;;1.60;;
43694;SDS011;29300;43.560;1.294;2022-12-24T15:57:29;1.55;;;1.45;;
43694;SDS011;29300;43.560;1.294;2022-12-24T15:59:57;2.60;;;1.80;;
43694;SDS011;29300;43.560;1.294;2022-12-24T16:02:35;1.42;;;1.33;;
43694;SDS011;29300;43.560;1.294;2022-12-24T16:07:58;1.40;;;1.30;;
43694;SDS011;29300;43.560;1.294;2022-12-24T16:10:43;2.95;;;2.20;;
43694;SDS011;29300;43.560;1.294;2022-12-24T16:15:55;3.83;;;2.22;;
43694;SDS011;29300;43.560;1.294;2022-12-24T16:21:02;5.47;;;2.63;;
43694;SDS011;29300;43.560;1.294;2022-12-24T16:26:12;2.70;;;2.30;;
43694;SDS011;29300;43.560;1.294;2022-12-24T16:28:38;3.10;;;2.00;;
43694;SDS011;29300;43.560;1.294;2022-12-24T16:31:04;2.30;;;2.10;;
43694;SDS011;29300;43.560;1.294;2022-12-24T16:33:29;2.92;;;1.92;;
43694;SDS011;29300;43.560;1.294;2022-12-24T16:35:55;2.63;;;2.42;;
43694;SDS011;29300;43.560;1.294;2022-12-24T16:38:21;3.20;;;2.47;;
43694;SDS011;29300;43.560;1.294;2022-12-24T16:40:47;3.08;;;2.55;;
43694;SDS011;29300;43.560;1.294;2022-12-24T16:43:13;4.80;;;2.85;;
43694;SDS011;29300;43.560;1.294;2022-12-24T16:46:01;3.53;;;2.80;;
43694;SDS011;29300;43.560;1.294;2022-12-24T16:48:31;3.42;;;2.70;;
43694;SDS011;29300;43.560;1.294;2022-12-24T16:51:00;3.80;;;2.72;;
43694;SDS011;29300;43.560;1.294;2022-12-24T16:53:26;3.83;;;3.10;;
43694;SDS011;29300;43.560;1.294;2022-12-24T16:55:52;3.72;;;3.00;;
43694;SDS011;29300;43.560;1.294;2022-12-24T16:58:18;4.00;;;2.80;;
43694;SDS011;29300;43.560;1.294;2022-12-24T17:00:44;3.50;;;2.67;;
43694;SDS011;29300;43.560;1.294;2022-12-24T17:03:10;5.13;;;3.50;;
43694;SDS011;29300;43.560;1.294;2022-12-24T17:05:37;4.20;;;3.20;;
43694;SDS011;29300;43.560;1.294;2022-12-24T17:08:04;6.13;;;3.58;;